RYR235 ELLX-LFPG
Flight info
| Callsign | RYR235 |
|---|---|
| Flight time | 0h 44m |
| Altitude | 19000 |
| Route | RAPOR Z157 VEDUS |
| Aircraft | B38M/M-SDE1FGHILORVWXY/HB1 |
Departure
| Time | 2026-05-08 20:41 |
|---|---|
| Airport | Luxembourg-Findel International Airport (ELLX) |
Arrival
| Time | 2026-05-08 21:25 |
|---|---|
| Airport | Charles de Gaulle International Airport (LFPG) |
| Time | Latitude | Longitude | Altitude | Speed | Heading |
|---|---|---|---|---|---|
| 2026-05-08 20:19 | 49.63617 | 6.22919 | 1198 ft | 0 kts | 84° |
| 2026-05-08 20:22 | 49.62427 | 6.19770 | 1197 ft | 0 kts | 356° |
| 2026-05-08 20:33 | 49.62417 | 6.19787 | 1197 ft | 7 kts | 189° |
| 2026-05-08 20:33 | 49.62371 | 6.19783 | 1197 ft | 7 kts | 163° |
| 2026-05-08 20:33 | 49.62361 | 6.19791 | 1198 ft | 0 kts | 153° |
| 2026-05-08 20:38 | 49.62349 | 6.19799 | 1198 ft | 3 kts | 156° |
| 2026-05-08 20:39 | 49.62326 | 6.19798 | 1199 ft | 5 kts | 199° |
| 2026-05-08 20:39 | 49.62298 | 6.19741 | 1199 ft | 9 kts | 241° |
| 2026-05-08 20:39 | 49.62257 | 6.19630 | 1199 ft | 15 kts | 240° |
| 2026-05-08 20:39 | 49.62193 | 6.19560 | 1200 ft | 10 kts | 175° |
| 2026-05-08 20:40 | 49.62178 | 6.19566 | 1201 ft | 0 kts | 160° |
| 2026-05-08 20:40 | 49.62176 | 6.19567 | 1201 ft | 2 kts | 160° |
| 2026-05-08 20:40 | 49.62145 | 6.19587 | 1204 ft | 8 kts | 158° |
| 2026-05-08 20:40 | 49.62101 | 6.19669 | 1208 ft | 14 kts | 91° |
| 2026-05-08 20:41 | 49.62194 | 6.19944 | 1211 ft | 63 kts | 60° |
| 2026-05-08 20:41 | 49.62558 | 6.20921 | 1217 ft | 143 kts | 59° |
| 2026-05-08 20:41 | 49.63136 | 6.22448 | 1564 ft | 182 kts | 59° |
| 2026-05-08 20:41 | 49.63811 | 6.24226 | 2323 ft | 198 kts | 59° |
| 2026-05-08 20:42 | 49.64496 | 6.26034 | 3326 ft | 187 kts | 59° |
| 2026-05-08 20:42 | 49.65171 | 6.27804 | 3574 ft | 204 kts | 59° |
| 2026-05-08 20:42 | 49.65954 | 6.29850 | 3219 ft | 228 kts | 59° |
| 2026-05-08 20:42 | 49.66752 | 6.31930 | 2754 ft | 225 kts | 59° |
| 2026-05-08 20:43 | 49.67559 | 6.34080 | 2449 ft | 233 kts | 62° |
| 2026-05-08 20:43 | 49.68342 | 6.36317 | 2686 ft | 242 kts | 52° |
| 2026-05-08 20:43 | 49.69728 | 6.37795 | 2927 ft | 249 kts | 17° |
| 2026-05-08 20:43 | 49.71442 | 6.37829 | 3173 ft | 251 kts | 343° |
| 2026-05-08 20:44 | 49.72880 | 6.36370 | 3444 ft | 252 kts | 309° |
| 2026-05-08 20:44 | 49.73547 | 6.33898 | 3712 ft | 254 kts | 275° |
| 2026-05-08 20:44 | 49.73513 | 6.31172 | 3982 ft | 255 kts | 265° |
| 2026-05-08 20:44 | 49.73338 | 6.28443 | 4251 ft | 256 kts | 264° |
| 2026-05-08 20:45 | 49.73171 | 6.25701 | 4512 ft | 257 kts | 265° |
| 2026-05-08 20:45 | 49.73078 | 6.23839 | 4682 ft | 257 kts | 266° |
| 2026-05-08 20:45 | 49.72697 | 6.20253 | 5133 ft | 253 kts | 256° |
| 2026-05-08 20:45 | 49.72276 | 6.17634 | 5503 ft | 250 kts | 257° |
| 2026-05-08 20:46 | 49.71908 | 6.14991 | 5884 ft | 247 kts | 259° |
| 2026-05-08 20:46 | 49.71585 | 6.12430 | 6248 ft | 245 kts | 259° |
| 2026-05-08 20:46 | 49.71253 | 6.09866 | 6609 ft | 242 kts | 258° |
| 2026-05-08 20:46 | 49.70913 | 6.07323 | 6973 ft | 241 kts | 258° |
| 2026-05-08 20:47 | 49.70575 | 6.04798 | 7339 ft | 239 kts | 258° |
| 2026-05-08 20:47 | 49.70241 | 6.02288 | 7707 ft | 238 kts | 258° |
| 2026-05-08 20:47 | 49.69909 | 5.99794 | 8071 ft | 236 kts | 258° |
| 2026-05-08 20:47 | 49.69577 | 5.97314 | 8438 ft | 235 kts | 258° |
| 2026-05-08 20:48 | 49.69246 | 5.94844 | 8805 ft | 234 kts | 258° |
| 2026-05-08 20:48 | 49.68917 | 5.92391 | 9171 ft | 233 kts | 258° |
| 2026-05-08 20:48 | 49.68589 | 5.89945 | 9542 ft | 232 kts | 258° |
| 2026-05-08 20:48 | 49.68261 | 5.87513 | 9905 ft | 231 kts | 258° |
| 2026-05-08 20:49 | 49.68041 | 5.85879 | 10145 ft | 230 kts | 258° |
| 2026-05-08 20:49 | 49.67716 | 5.83466 | 10519 ft | 229 kts | 258° |
| 2026-05-08 20:49 | 49.67391 | 5.81066 | 10885 ft | 228 kts | 258° |
| 2026-05-08 20:49 | 49.67068 | 5.78678 | 11250 ft | 227 kts | 258° |
| 2026-05-08 20:50 | 49.66745 | 5.76301 | 11613 ft | 225 kts | 258° |
| 2026-05-08 20:50 | 49.66425 | 5.73941 | 11975 ft | 224 kts | 258° |
| 2026-05-08 20:50 | 49.66105 | 5.71592 | 12347 ft | 223 kts | 258° |
| 2026-05-08 20:50 | 49.65788 | 5.69261 | 12710 ft | 221 kts | 258° |
| 2026-05-08 20:51 | 49.65470 | 5.66933 | 13001 ft | 224 kts | 258° |
| 2026-05-08 20:51 | 49.65145 | 5.64558 | 13234 ft | 231 kts | 258° |
| 2026-05-08 20:51 | 49.64797 | 5.62013 | 13442 ft | 253 kts | 258° |
| 2026-05-08 20:51 | 49.64424 | 5.59294 | 13693 ft | 272 kts | 258° |
| 2026-05-08 20:52 | 49.64011 | 5.56295 | 13970 ft | 291 kts | 258° |
| 2026-05-08 20:52 | 49.63585 | 5.53197 | 14268 ft | 308 kts | 258° |
| 2026-05-08 20:52 | 49.63129 | 5.49897 | 14538 ft | 318 kts | 258° |
| 2026-05-08 20:52 | 49.62666 | 5.46552 | 14810 ft | 319 kts | 258° |
| 2026-05-08 20:53 | 49.62201 | 5.43197 | 15075 ft | 321 kts | 258° |
| 2026-05-08 20:53 | 49.61740 | 5.39823 | 15335 ft | 322 kts | 259° |
| 2026-05-08 20:53 | 49.61421 | 5.36400 | 15593 ft | 323 kts | 263° |
| 2026-05-08 20:53 | 49.61168 | 5.32954 | 15847 ft | 324 kts | 263° |
| 2026-05-08 20:54 | 49.60856 | 5.29503 | 16109 ft | 326 kts | 261° |
| 2026-05-08 20:54 | 49.60505 | 5.26045 | 16366 ft | 327 kts | 261° |
| 2026-05-08 20:54 | 49.60167 | 5.22575 | 16594 ft | 328 kts | 262° |
| 2026-05-08 20:54 | 49.59845 | 5.19089 | 16854 ft | 329 kts | 262° |
| 2026-05-08 20:55 | 49.59517 | 5.15590 | 17109 ft | 330 kts | 262° |
| 2026-05-08 20:55 | 49.59179 | 5.12078 | 17357 ft | 332 kts | 262° |
| 2026-05-08 20:55 | 49.58833 | 5.08499 | 17610 ft | 333 kts | 262° |
| 2026-05-08 20:55 | 49.58494 | 5.04963 | 17861 ft | 334 kts | 262° |
| 2026-05-08 20:56 | 49.58152 | 5.01414 | 18111 ft | 336 kts | 262° |
| 2026-05-08 20:56 | 49.57812 | 4.97898 | 18358 ft | 337 kts | 261° |
| 2026-05-08 20:56 | 49.57463 | 4.94316 | 18605 ft | 338 kts | 261° |
| 2026-05-08 20:56 | 49.57108 | 4.90672 | 18864 ft | 343 kts | 261° |
| 2026-05-08 20:57 | 49.56746 | 4.86972 | 18998 ft | 355 kts | 261° |
| 2026-05-08 20:57 | 49.56379 | 4.83224 | 19001 ft | 352 kts | 261° |
| 2026-05-08 20:57 | 49.56012 | 4.79502 | 19003 ft | 353 kts | 261° |
| 2026-05-08 20:57 | 49.55643 | 4.75768 | 19004 ft | 353 kts | 261° |
| 2026-05-08 20:58 | 49.55273 | 4.72033 | 19004 ft | 353 kts | 261° |
| 2026-05-08 20:58 | 49.54901 | 4.68294 | 19006 ft | 353 kts | 261° |
| 2026-05-08 20:58 | 49.54528 | 4.64560 | 19006 ft | 353 kts | 261° |
| 2026-05-08 20:58 | 49.54154 | 4.60824 | 19006 ft | 353 kts | 261° |
| 2026-05-08 20:59 | 49.53780 | 4.57097 | 19007 ft | 353 kts | 261° |
| 2026-05-08 20:59 | 49.53403 | 4.53360 | 19007 ft | 353 kts | 261° |
| 2026-05-08 20:59 | 49.53025 | 4.49629 | 19007 ft | 353 kts | 261° |
| 2026-05-08 20:59 | 49.52647 | 4.45900 | 19007 ft | 353 kts | 261° |
| 2026-05-08 21:00 | 49.52267 | 4.42173 | 19007 ft | 353 kts | 261° |
| 2026-05-08 21:00 | 49.51886 | 4.38445 | 19008 ft | 353 kts | 261° |
| 2026-05-08 21:00 | 49.51503 | 4.34703 | 18873 ft | 354 kts | 261° |
| 2026-05-08 21:00 | 49.51123 | 4.31007 | 18613 ft | 346 kts | 261° |
| 2026-05-08 21:01 | 49.50748 | 4.27379 | 18353 ft | 342 kts | 261° |
| 2026-05-08 21:01 | 49.50376 | 4.23786 | 18096 ft | 339 kts | 261° |
| 2026-05-08 21:01 | 49.50005 | 4.20210 | 17840 ft | 337 kts | 261° |
| 2026-05-08 21:01 | 49.49636 | 4.16667 | 17586 ft | 335 kts | 261° |
| 2026-05-08 21:02 | 49.49267 | 4.13140 | 17333 ft | 333 kts | 261° |
| 2026-05-08 21:02 | 49.48899 | 4.09627 | 17080 ft | 332 kts | 261° |
| 2026-05-08 21:02 | 49.48528 | 4.06094 | 16827 ft | 331 kts | 261° |
| 2026-05-08 21:02 | 49.48164 | 4.02644 | 16577 ft | 330 kts | 261° |
| 2026-05-08 21:03 | 49.47797 | 3.99173 | 16327 ft | 328 kts | 261° |
| 2026-05-08 21:03 | 49.47430 | 3.95714 | 16074 ft | 327 kts | 261° |
| 2026-05-08 21:03 | 49.47065 | 3.92277 | 15818 ft | 326 kts | 261° |
| 2026-05-08 21:03 | 49.46699 | 3.88846 | 15576 ft | 324 kts | 261° |
| 2026-05-08 21:04 | 49.46334 | 3.85435 | 15330 ft | 323 kts | 261° |
| 2026-05-08 21:04 | 49.45969 | 3.82033 | 15076 ft | 322 kts | 261° |
| 2026-05-08 21:04 | 49.45605 | 3.78654 | 15008 ft | 320 kts | 261° |
| 2026-05-08 21:04 | 49.45240 | 3.75275 | 15012 ft | 321 kts | 261° |
| 2026-05-08 21:05 | 49.44874 | 3.71893 | 15010 ft | 321 kts | 261° |
| 2026-05-08 21:05 | 49.44507 | 3.68511 | 15012 ft | 321 kts | 261° |
| 2026-05-08 21:05 | 49.44139 | 3.65130 | 15010 ft | 321 kts | 261° |
| 2026-05-08 21:05 | 49.43765 | 3.61701 | 15010 ft | 321 kts | 261° |
| 2026-05-08 21:06 | 49.43395 | 3.58323 | 15010 ft | 321 kts | 260° |
| 2026-05-08 21:06 | 49.43024 | 3.54941 | 15011 ft | 321 kts | 260° |
| 2026-05-08 21:06 | 49.42652 | 3.51562 | 15012 ft | 321 kts | 260° |
| 2026-05-08 21:06 | 49.42279 | 3.48186 | 15009 ft | 321 kts | 260° |
| 2026-05-08 21:07 | 49.41817 | 3.44843 | 15011 ft | 320 kts | 249° |
| 2026-05-08 21:07 | 49.40904 | 3.41721 | 15009 ft | 320 kts | 244° |
| 2026-05-08 21:07 | 49.39905 | 3.38668 | 15010 ft | 321 kts | 243° |
| 2026-05-08 21:07 | 49.38905 | 3.35604 | 15010 ft | 321 kts | 244° |
| 2026-05-08 21:08 | 49.37935 | 3.32529 | 15010 ft | 320 kts | 244° |
| 2026-05-08 21:08 | 49.36966 | 3.29445 | 15011 ft | 320 kts | 244° |
| 2026-05-08 21:08 | 49.35987 | 3.26373 | 15010 ft | 321 kts | 244° |
| 2026-05-08 21:08 | 49.35004 | 3.23305 | 14950 ft | 322 kts | 244° |
| 2026-05-08 21:09 | 49.34023 | 3.20235 | 14569 ft | 321 kts | 244° |
| 2026-05-08 21:09 | 49.33028 | 3.17117 | 14180 ft | 319 kts | 244° |
| 2026-05-08 21:09 | 49.32073 | 3.14130 | 13801 ft | 317 kts | 244° |
| 2026-05-08 21:09 | 49.31103 | 3.11106 | 13426 ft | 315 kts | 244° |
| 2026-05-08 21:10 | 49.30137 | 3.08095 | 13057 ft | 314 kts | 244° |
| 2026-05-08 21:10 | 49.29177 | 3.05106 | 12686 ft | 312 kts | 244° |
| 2026-05-08 21:10 | 49.28220 | 3.02129 | 12301 ft | 310 kts | 244° |
| 2026-05-08 21:10 | 49.27270 | 2.99178 | 11930 ft | 308 kts | 244° |
| 2026-05-08 21:11 | 49.26323 | 2.96243 | 11555 ft | 306 kts | 244° |
| 2026-05-08 21:11 | 49.25383 | 2.93329 | 11180 ft | 305 kts | 244° |
| 2026-05-08 21:11 | 49.24449 | 2.90439 | 11006 ft | 301 kts | 244° |
| 2026-05-08 21:11 | 49.23516 | 2.87555 | 11012 ft | 303 kts | 244° |
| 2026-05-08 21:12 | 49.22581 | 2.84667 | 11011 ft | 303 kts | 244° |
| 2026-05-08 21:12 | 49.21645 | 2.81780 | 11010 ft | 303 kts | 244° |
| 2026-05-08 21:12 | 49.20709 | 2.78895 | 11012 ft | 303 kts | 244° |
| 2026-05-08 21:12 | 49.19771 | 2.76011 | 11009 ft | 303 kts | 244° |
| 2026-05-08 21:13 | 49.18832 | 2.73125 | 11010 ft | 303 kts | 244° |
| 2026-05-08 21:13 | 49.17894 | 2.70243 | 11011 ft | 303 kts | 244° |
| 2026-05-08 21:13 | 49.16941 | 2.67323 | 11011 ft | 303 kts | 244° |
| 2026-05-08 21:13 | 49.16002 | 2.64444 | 11012 ft | 303 kts | 244° |
| 2026-05-08 21:14 | 49.15058 | 2.61557 | 10980 ft | 303 kts | 244° |
| 2026-05-08 21:14 | 49.14012 | 2.58771 | 10780 ft | 301 kts | 245° |
| 2026-05-08 21:14 | 49.13511 | 2.55690 | 10490 ft | 301 kts | 265° |
| 2026-05-08 21:14 | 49.13434 | 2.52324 | 10096 ft | 299 kts | 270° |
| 2026-05-08 21:15 | 49.13446 | 2.49305 | 9744 ft | 297 kts | 266° |
| 2026-05-08 21:15 | 49.13176 | 2.46192 | 9344 ft | 296 kts | 259° |
| 2026-05-08 21:15 | 49.12766 | 2.43197 | 8906 ft | 284 kts | 257° |
| 2026-05-08 21:15 | 49.12337 | 2.40334 | 8450 ft | 270 kts | 257° |
| 2026-05-08 21:16 | 49.11906 | 2.37525 | 8026 ft | 273 kts | 257° |
| 2026-05-08 21:16 | 49.11469 | 2.34690 | 7607 ft | 276 kts | 257° |
| 2026-05-08 21:16 | 49.11027 | 2.31828 | 7187 ft | 277 kts | 257° |
| 2026-05-08 21:16 | 49.10582 | 2.28956 | 6768 ft | 279 kts | 257° |
| 2026-05-08 21:17 | 49.10140 | 2.26101 | 6508 ft | 274 kts | 257° |
| 2026-05-08 21:17 | 49.09708 | 2.23309 | 6241 ft | 263 kts | 257° |
| 2026-05-08 21:17 | 49.09288 | 2.20601 | 6014 ft | 260 kts | 257° |
| 2026-05-08 21:17 | 49.08879 | 2.17973 | 5995 ft | 251 kts | 257° |
| 2026-05-08 21:18 | 49.08476 | 2.15377 | 5944 ft | 252 kts | 257° |
| 2026-05-08 21:18 | 49.07724 | 2.12997 | 5702 ft | 251 kts | 228° |
| 2026-05-08 21:18 | 49.06326 | 2.11439 | 5466 ft | 250 kts | 202° |
| 2026-05-08 21:18 | 49.04632 | 2.10946 | 5172 ft | 251 kts | 178° |
| 2026-05-08 21:19 | 49.02917 | 2.11606 | 4844 ft | 253 kts | 153° |
| 2026-05-08 21:19 | 49.01586 | 2.13238 | 4569 ft | 242 kts | 128° |
| 2026-05-08 21:19 | 49.00803 | 2.15468 | 4312 ft | 233 kts | 105° |
| 2026-05-08 21:19 | 49.00623 | 2.17860 | 4058 ft | 224 kts | 88° |
| 2026-05-08 21:20 | 49.00731 | 2.20182 | 3879 ft | 214 kts | 84° |
| 2026-05-08 21:20 | 49.00877 | 2.22342 | 3892 ft | 193 kts | 84° |
| 2026-05-08 21:20 | 49.00991 | 2.24380 | 3897 ft | 195 kts | 85° |
| 2026-05-08 21:20 | 49.01101 | 2.26453 | 3715 ft | 196 kts | 85° |
| 2026-05-08 21:21 | 49.01209 | 2.28505 | 3458 ft | 193 kts | 85° |
| 2026-05-08 21:21 | 49.01314 | 2.30486 | 3200 ft | 184 kts | 85° |
| 2026-05-08 21:21 | 49.01382 | 2.31769 | 3042 ft | 181 kts | 85° |
| 2026-05-08 21:21 | 49.01478 | 2.33602 | 2799 ft | 165 kts | 85° |
| 2026-05-08 21:22 | 49.01567 | 2.35285 | 2590 ft | 156 kts | 85° |
| 2026-05-08 21:22 | 49.01652 | 2.36888 | 2381 ft | 147 kts | 85° |
| 2026-05-08 21:22 | 49.01733 | 2.38432 | 2183 ft | 146 kts | 85° |
| 2026-05-08 21:22 | 49.01815 | 2.39974 | 1978 ft | 142 kts | 85° |
| 2026-05-08 21:23 | 49.01893 | 2.41457 | 1793 ft | 138 kts | 85° |
| 2026-05-08 21:23 | 49.01970 | 2.42904 | 1618 ft | 137 kts | 85° |
| 2026-05-08 21:23 | 49.02045 | 2.44333 | 1428 ft | 132 kts | 85° |
| 2026-05-08 21:23 | 49.02117 | 2.45696 | 1198 ft | 129 kts | 85° |
| 2026-05-08 21:24 | 49.02189 | 2.47056 | 954 ft | 127 kts | 85° |
| 2026-05-08 21:24 | 49.02257 | 2.48399 | 808 ft | 127 kts | 86° |
| 2026-05-08 21:24 | 49.02326 | 2.49745 | 739 ft | 129 kts | 85° |
| 2026-05-08 21:24 | 49.02397 | 2.51092 | 597 ft | 127 kts | 85° |
| 2026-05-08 21:25 | 49.02470 | 2.52439 | 418 ft | 128 kts | 85° |
| 2026-05-08 21:25 | 49.02538 | 2.53727 | 365 ft | 109 kts | 85° |
| 2026-05-08 21:25 | 49.02590 | 2.54662 | 355 ft | 70 kts | 85° |
| 2026-05-08 21:25 | 49.02588 | 2.55209 | 362 ft | 34 kts | 107° |
| 2026-05-08 21:26 | 49.02503 | 2.55510 | 361 ft | 28 kts | 116° |
| 2026-05-08 21:26 | 49.02357 | 2.55620 | 355 ft | 23 kts | 175° |
| 2026-05-08 21:26 | 49.02206 | 2.55639 | 360 ft | 21 kts | 175° |
| 2026-05-08 21:26 | 49.02109 | 2.55649 | 359 ft | 6 kts | 185° |
| 2026-05-08 21:27 | 49.02097 | 2.55637 | 355 ft | 2 kts | 220° |
| 2026-05-08 21:27 | 49.02085 | 2.55615 | 361 ft | 4 kts | 233° |
| 2026-05-08 21:27 | 49.02071 | 2.55577 | 359 ft | 4 kts | 247° |
| 2026-05-08 21:27 | 49.02066 | 2.55550 | 360 ft | 2 kts | 264° |
| 2026-05-08 21:28 | 49.02065 | 2.55518 | 361 ft | 4 kts | 268° |